Immensity — 9HA4442 — position and weather

sailwx.info

Track history (hours):
 
Tides and Currents Weather Stations Pressure Air Temp Water Temp Dewpoint Dewpoint Depression Visibility Wind Speed Wind Dir Waves Ship Positions

Immensity

Last reported at 2018-Jun-22 21:19 UTC. Time now 2018-Jun-25 04:16 UTC.
Position N 41°18' E 030°31'.

Length 108 m; draft 8.5 m.

Type: Cargo ship. MMSI: 249935000.

Date/timePositionNaut miles runAvg speedWind from/ knotsBaromVisibWave heightAir tempDewpointWater temp
2018-Jun-22 21:19N 41°18' E 030°31'3 9.2
2018-Jun-22 21:00N 41°18' E 030°35'13 9.5
2018-Jun-22 19:36N 41°18' E 030°53'20 9.7
2018-Jun-22 17:30N 41°17' E 031°20'3 0.2
2018-Jun-21 19:35N 41°16' E 031°24'0 0.1
2018-Jun-21 19:29N 41°16' E 031°25'0 0.0
2018-Jun-21 18:59N 41°16' E 031°24'0 0.0
2018-Jun-21 18:29N 41°16' E 031°25'0 0.0
2018-Jun-21 09:47N 41°16' E 031°25'  
2018-Jun-16 13:46N 41°16' E 031°25'0 0.0
2018-Jun-16 13:22N 41°16' E 031°25'0 0.0
2018-Jun-16 07:15N 41°16' E 031°25'0 1.7
2018-Jun-16 07:00N 41°16' E 031°25'1 2.3
2018-Jun-16 06:24N 41°17' E 031°23'15 6.3
2018-Jun-16 04:01N 41°17' E 031°03'0 6.9
2018-Jun-16 04:00N 41°17' E 031°03'18 5.9
2018-Jun-16 00:55N 41°16' E 030°39'4 6.7
2018-Jun-16 00:20N 41°16' E 030°33'3 6.9
2018-Jun-15 23:52N 41°16' E 030°29'10 7.4
2018-Jun-15 22:31N 41°16' E 030°16'0 7.4
2018-Jun-15 22:29N 41°16' E 030°15'7 7.0
2018-Jun-15 21:32N 41°16' E 030°06'0 6.8
2018-Jun-15 21:30N 41°16' E 030°06'5 6.7
2018-Jun-15 20:46N 41°16' E 029°60'2 6.6
2018-Jun-15 20:30N 41°16' E 029°57'3 6.6
2018-Jun-15 20:00N 41°16' E 029°53'4 6.6
2018-Jun-15 19:25N 41°16' E 029°48'3 6.5
2018-Jun-15 19:00N 41°16' E 029°44'8 6.3
2018-Jun-15 17:47N 41°15' E 029°34'2 6.6
2018-Jun-15 17:28N 41°15' E 029°31'3 7.3
2018-Jun-15 17:00N 41°15' E 029°27'4 7.6
2018-Jun-15 16:30N 41°15' E 029°22'4 7.7
2018-Jun-15 15:57N 41°15' E 029°16'5 7.6
2018-Jun-15 15:20N 41°15' E 029°10'3 9.5
2018-Jun-15 14:59N 41°12' E 029°07'4 9.0
2018-Jun-15 14:30N 41°09' E 029°04'149 6.7
2018-Jun-14 16:19N 40°01' E 026°09'14810.3
2018-Jun-14 01:56N 37°33' E 025°52'510.4
2018-Jun-14 01:30N 37°29' E 025°55'  
Track history (hours):
 
Tides and Currents Weather Stations Pressure Air Temp Water Temp Dewpoint Dewpoint Depression Visibility Wind Speed Wind Dir Waves Ship Positions

Immensity

Last reported at 2018-Jun-22 21:19 UTC. Time now 2018-Jun-25 04:16 UTC.
Position N 41°18' E 030°31'.

Length 108 m; draft 8.5 m.

Type: Cargo ship. MMSI: 249935000.

Date/timePositionNaut miles runAvg speedWind from/ knotsBaromVisibWave heightAir tempDewpointWater temp
2018-Jun-22 21:19N 41°18' E 030°31'3 9.2
2018-Jun-22 21:00N 41°18' E 030°35'13 9.5
2018-Jun-22 19:36N 41°18' E 030°53'20 9.7
2018-Jun-22 17:30N 41°17' E 031°20'3 0.2
2018-Jun-21 19:35N 41°16' E 031°24'0 0.1
2018-Jun-21 19:29N 41°16' E 031°25'0 0.0
2018-Jun-21 18:59N 41°16' E 031°24'0 0.0
2018-Jun-21 18:29N 41°16' E 031°25'0 0.0
2018-Jun-21 09:47N 41°16' E 031°25'  
2018-Jun-16 13:46N 41°16' E 031°25'0 0.0
2018-Jun-16 13:22N 41°16' E 031°25'0 0.0
2018-Jun-16 07:15N 41°16' E 031°25'0 1.7
2018-Jun-16 07:00N 41°16' E 031°25'1 2.3
2018-Jun-16 06:24N 41°17' E 031°23'15 6.3
2018-Jun-16 04:01N 41°17' E 031°03'0 6.9
2018-Jun-16 04:00N 41°17' E 031°03'18 5.9
2018-Jun-16 00:55N 41°16' E 030°39'4 6.7
2018-Jun-16 00:20N 41°16' E 030°33'3 6.9
2018-Jun-15 23:52N 41°16' E 030°29'10 7.4
2018-Jun-15 22:31N 41°16' E 030°16'0 7.4
2018-Jun-15 22:29N 41°16' E 030°15'7 7.0
2018-Jun-15 21:32N 41°16' E 030°06'0 6.8
2018-Jun-15 21:30N 41°16' E 030°06'5 6.7
2018-Jun-15 20:46N 41°16' E 029°60'2 6.6
2018-Jun-15 20:30N 41°16' E 029°57'3 6.6
2018-Jun-15 20:00N 41°16' E 029°53'4 6.6
2018-Jun-15 19:25N 41°16' E 029°48'3 6.5
2018-Jun-15 19:00N 41°16' E 029°44'8 6.3
2018-Jun-15 17:47N 41°15' E 029°34'2 6.6
2018-Jun-15 17:28N 41°15' E 029°31'3 7.3
2018-Jun-15 17:00N 41°15' E 029°27'4 7.6
2018-Jun-15 16:30N 41°15' E 029°22'4 7.7
2018-Jun-15 15:57N 41°15' E 029°16'5 7.6
2018-Jun-15 15:20N 41°15' E 029°10'3 9.5
2018-Jun-15 14:59N 41°12' E 029°07'4 9.0
2018-Jun-15 14:30N 41°09' E 029°04'149 6.7
2018-Jun-14 16:19N 40°01' E 026°09'14810.3
2018-Jun-14 01:56N 37°33' E 025°52'510.4
2018-Jun-14 01:30N 37°29' E 025°55'  

Dump ship's entire track history